createdAt,value
2018-06-20T00:00:17.868Z,6.53
2018-06-20T00:02:46.221Z,5.90
2018-06-20T00:05:14.192Z,8.43
2018-06-20T00:07:42.570Z,6.00
2018-06-20T00:10:10.767Z,5.37
2018-06-20T00:12:39.082Z,6.50
2018-06-20T00:15:07.535Z,5.73
2018-06-20T00:17:35.979Z,5.70
2018-06-20T00:20:04.217Z,5.73
2018-06-20T00:22:32.433Z,5.70
2018-06-20T00:25:00.721Z,5.60
2018-06-20T00:27:29.610Z,6.23
2018-06-20T00:29:57.791Z,5.93
2018-06-20T00:32:25.935Z,5.80
2018-06-20T00:34:54.220Z,5.77
2018-06-20T00:37:22.189Z,6.43
2018-06-20T00:39:50.439Z,5.70
2018-06-20T00:42:18.748Z,5.83
2018-06-20T00:44:47.090Z,5.70
2018-06-20T00:47:15.468Z,5.60
2018-06-20T00:49:43.793Z,5.87
2018-06-20T00:52:12.540Z,6.37
2018-06-20T00:54:41.492Z,5.57
2018-06-20T00:57:09.764Z,6.20
2018-06-20T00:59:39.000Z,6.30
2018-06-20T01:02:07.212Z,6.30
2018-06-20T01:04:35.382Z,5.80
2018-06-20T01:07:03.708Z,5.67
2018-06-20T01:09:32.052Z,7.03
2018-06-20T01:12:00.250Z,6.70
2018-06-20T01:14:28.421Z,5.83
2018-06-20T01:16:56.650Z,6.10
2018-06-20T01:19:24.918Z,6.23
2018-06-20T01:21:53.120Z,6.63
2018-06-20T01:24:21.277Z,6.30
2018-06-20T01:26:49.524Z,6.20
2018-06-20T01:29:17.778Z,6.10
2018-06-20T01:31:46.104Z,6.53
2018-06-20T01:34:14.356Z,7.83
2018-06-20T01:36:42.564Z,7.53
2018-06-20T01:39:11.604Z,6.07
2018-06-20T01:41:40.187Z,6.27
2018-06-20T01:44:08.396Z,6.00
2018-06-20T01:46:36.801Z,5.80
2018-06-20T01:49:05.420Z,6.20
2018-06-20T01:51:33.673Z,5.47
2018-06-20T01:54:01.981Z,6.10
2018-06-20T01:56:30.211Z,5.80
2018-06-20T01:58:58.453Z,5.93
2018-06-20T02:01:26.839Z,6.97
2018-06-20T02:03:55.055Z,8.60
2018-06-20T02:06:23.278Z,7.47
2018-06-20T02:08:55.720Z,5.30
2018-06-20T02:11:24.701Z,4.87
2018-06-20T02:13:53.621Z,5.43
2018-06-20T02:16:21.871Z,4.00
2018-06-20T02:18:50.290Z,3.43
2018-06-20T02:21:18.789Z,4.07
2018-06-20T02:23:47.647Z,3.80
2018-06-20T02:26:16.159Z,4.40
2018-06-20T02:28:44.381Z,3.97
2018-06-20T02:31:12.765Z,3.97
2018-06-20T02:33:47.296Z,4.07
2018-06-20T02:36:21.142Z,4.20
2018-06-20T02:38:49.427Z,3.40
2018-06-20T02:41:18.403Z,4.10
2018-06-20T02:43:46.695Z,3.40
2018-06-20T02:46:14.895Z,3.50
2018-06-20T02:48:43.130Z,3.93
2018-06-20T02:51:11.327Z,3.20
2018-06-20T02:53:39.549Z,3.80
2018-06-20T02:56:07.782Z,3.40
2018-06-20T02:58:35.987Z,3.20
2018-06-20T03:01:04.183Z,3.53
2018-06-20T03:03:32.435Z,3.10
2018-06-20T03:06:00.826Z,3.00
2018-06-20T03:08:29.051Z,4.20
2018-06-20T03:10:57.295Z,3.60
2018-06-20T03:13:25.727Z,3.40
2018-06-20T03:15:53.948Z,4.10
2018-06-20T03:18:22.467Z,4.20
2018-06-20T03:20:50.827Z,3.13
2018-06-20T03:23:19.369Z,3.20
2018-06-20T03:25:47.600Z,3.60
2018-06-20T03:28:15.876Z,4.00
2018-06-20T03:30:44.056Z,2.73
2018-06-20T03:33:12.422Z,3.63
2018-06-20T03:35:40.656Z,3.80
2018-06-20T03:38:08.705Z,2.90
2018-06-20T03:40:37.393Z,3.50
2018-06-20T03:43:05.632Z,3.33
2018-06-20T03:45:34.188Z,2.77
2018-06-20T03:48:02.406Z,3.23
2018-06-20T03:50:30.620Z,2.83
2018-06-20T03:52:59.135Z,2.80
2018-06-20T03:55:27.514Z,2.73
2018-06-20T03:57:55.708Z,2.83
2018-06-20T04:00:23.914Z,3.50
2018-06-20T04:02:52.193Z,3.57
2018-06-20T04:05:20.401Z,4.20
2018-06-20T04:07:48.716Z,3.10
2018-06-20T04:10:17.064Z,7.13
2018-06-20T04:12:45.380Z,8.10
2018-06-20T04:15:13.612Z,4.43
2018-06-20T04:17:41.921Z,3.80
2018-06-20T04:20:10.334Z,4.90
2018-06-20T04:22:38.617Z,3.63
2018-06-20T04:25:07.130Z,3.07
2018-06-20T04:27:35.515Z,3.70
2018-06-20T04:30:03.826Z,4.73
2018-06-20T04:32:32.428Z,2.77
2018-06-20T04:35:00.922Z,2.57
2018-06-20T04:37:29.800Z,2.67
2018-06-20T04:39:59.064Z,2.50
2018-06-20T04:42:27.380Z,2.80
2018-06-20T04:44:55.596Z,3.47
2018-06-20T04:47:23.665Z,3.87
2018-06-20T04:49:52.080Z,3.10
2018-06-20T04:52:20.514Z,3.30
2018-06-20T04:54:48.794Z,2.93
2018-06-20T04:57:17.496Z,2.67
2018-06-20T04:59:45.933Z,3.70
2018-06-20T05:02:14.354Z,2.80
2018-06-20T05:04:43.029Z,3.00
2018-06-20T05:07:11.341Z,3.17
2018-06-20T05:09:39.572Z,2.60
2018-06-20T05:12:07.991Z,2.80
2018-06-20T05:14:36.335Z,2.67
2018-06-20T05:17:04.705Z,4.60
2018-06-20T05:19:33.004Z,3.80
2018-06-20T05:22:01.242Z,3.07
2018-06-20T05:24:29.484Z,3.37
2018-06-20T05:26:57.987Z,3.67
2018-06-20T05:29:26.229Z,3.17
2018-06-20T05:31:54.701Z,3.03
2018-06-20T05:34:23.334Z,3.70
2018-06-20T05:36:51.607Z,3.17
2018-06-20T05:39:19.904Z,3.13
2018-06-20T05:41:48.415Z,3.63
2018-06-20T05:44:16.654Z,3.27
2018-06-20T05:46:45.878Z,3.57
2018-06-20T05:49:14.105Z,3.63
2018-06-20T05:51:43.130Z,3.37
2018-06-20T05:54:11.495Z,3.67
2018-06-20T05:56:39.774Z,3.77
2018-06-20T05:59:08.334Z,6.70
2018-06-20T06:01:37.655Z,9.87
2018-06-20T06:04:06.027Z,5.13
2018-06-20T06:06:34.435Z,4.70
2018-06-20T06:09:02.792Z,3.67
2018-06-20T06:11:31.053Z,4.90
2018-06-20T06:13:59.302Z,3.50
2018-06-20T06:16:27.917Z,3.80
2018-06-20T06:18:56.327Z,3.93
2018-06-20T06:21:24.559Z,4.50
2018-06-20T06:23:52.835Z,3.97
2018-06-20T06:26:21.048Z,3.80
2018-06-20T06:28:49.316Z,4.00
2018-06-20T06:31:17.686Z,3.93
2018-06-20T06:33:46.344Z,3.73
2018-06-20T06:36:14.630Z,3.83
2018-06-20T06:38:42.887Z,4.00
2018-06-20T06:41:11.218Z,4.00
2018-06-20T06:43:39.608Z,4.07
2018-06-20T06:46:07.954Z,4.37
2018-06-20T06:48:36.538Z,3.73
2018-06-20T06:51:05.858Z,3.97
2018-06-20T06:53:34.141Z,3.70
2018-06-20T06:56:02.745Z,3.63
2018-06-20T06:58:30.980Z,3.55
2018-06-20T07:00:59.237Z,3.30
2018-06-20T07:03:27.778Z,3.62
2018-06-20T07:05:56.742Z,3.80
2018-06-20T07:08:25.120Z,3.72
2018-06-20T07:10:53.688Z,3.02
2018-06-20T07:13:22.116Z,3.30
2018-06-20T07:15:50.862Z,3.20
2018-06-20T07:18:19.172Z,3.67
2018-06-20T07:20:47.614Z,3.65
2018-06-20T07:23:15.956Z,3.52
2018-06-20T07:25:44.182Z,3.50
2018-06-20T07:28:12.751Z,3.72
2018-06-20T07:30:41.047Z,2.90
2018-06-20T07:33:09.281Z,3.42
2018-06-20T07:35:37.911Z,3.45
2018-06-20T07:38:06.172Z,3.40
2018-06-20T07:40:34.767Z,3.20
2018-06-20T07:43:03.344Z,2.87
2018-06-20T07:45:32.036Z,3.25
2018-06-20T07:48:00.348Z,3.25
2018-06-20T07:50:28.584Z,3.50
2018-06-20T07:52:56.888Z,3.15
2018-06-20T07:55:25.204Z,3.52
2018-06-20T07:57:53.470Z,3.05
2018-06-20T08:00:26.983Z,3.12
2018-06-20T08:03:12.088Z,3.45
2018-06-20T08:05:45.611Z,4.20
2018-06-20T08:08:19.411Z,3.60
2018-06-20T08:10:53.259Z,3.87
2018-06-20T08:13:26.995Z,3.45
2018-06-20T08:16:00.786Z,3.65
2018-06-20T08:18:34.571Z,4.25
2018-06-20T08:21:02.879Z,4.15
2018-06-20T08:23:31.123Z,4.92
2018-06-20T08:25:59.652Z,4.08
2018-06-20T08:28:27.836Z,4.20
2018-06-20T08:30:56.106Z,7.00
2018-06-20T08:33:24.502Z,5.58
2018-06-20T08:35:53.069Z,5.75
2018-06-20T08:38:21.341Z,5.25
2018-06-20T08:40:49.630Z,6.90
2018-06-20T08:43:17.806Z,5.20
2018-06-20T08:45:46.148Z,5.15
2018-06-20T08:48:14.550Z,5.08
2018-06-20T08:50:43.817Z,14.10
2018-06-20T08:53:12.333Z,5.33
2018-06-20T08:55:40.608Z,5.30
2018-06-20T08:58:08.982Z,5.78
2018-06-20T09:00:42.737Z,5.37
2018-06-20T09:03:11.013Z,5.67
2018-06-20T09:05:44.641Z,5.55
2018-06-20T09:08:18.264Z,5.40
2018-06-20T09:10:52.065Z,5.62
2018-06-20T09:13:25.701Z,6.08
2018-06-20T09:15:59.918Z,6.17
2018-06-20T09:18:33.352Z,5.90
2018-06-20T09:21:01.632Z,5.95
2018-06-20T09:23:30.247Z,5.97
2018-06-20T09:25:58.527Z,6.30
2018-06-20T09:28:26.899Z,5.80
2018-06-20T09:30:55.161Z,6.60
2018-06-20T09:33:23.366Z,5.60
2018-06-20T09:35:51.647Z,5.45
2018-06-20T09:38:19.832Z,5.67
2018-06-20T09:40:48.506Z,6.28
2018-06-20T09:43:18.372Z,6.37
2018-06-20T09:45:46.790Z,5.72
2018-06-20T09:48:15.768Z,4.92
2018-06-20T09:50:49.425Z,5.97
2018-06-20T09:53:17.633Z,6.97
2018-06-20T09:55:46.241Z,6.30
2018-06-20T09:58:15.519Z,6.05
2018-06-20T10:00:49.289Z,6.95
2018-06-20T10:03:23.249Z,6.05
2018-06-20T10:05:57.029Z,10.20
2018-06-20T10:08:30.733Z,5.50
2018-06-20T10:11:04.445Z,7.55
2018-06-20T10:13:40.113Z,6.75
2018-06-20T10:16:08.552Z,6.87
2018-06-20T10:18:37.285Z,7.70
2018-06-20T10:21:05.713Z,7.60
2018-06-20T10:23:33.959Z,8.48
2018-06-20T10:26:02.448Z,6.70
2018-06-20T10:28:30.887Z,6.92
2018-06-20T10:30:59.177Z,8.33
2018-06-20T10:33:27.411Z,7.87
2018-06-20T10:35:55.667Z,7.62
2018-06-20T10:38:23.986Z,7.30
2018-06-20T10:40:52.307Z,7.28
2018-06-20T10:43:20.594Z,6.92
2018-06-20T10:45:54.198Z,6.72
2018-06-20T10:48:23.176Z,7.10
2018-06-20T10:50:51.458Z,9.13
2018-06-20T10:53:20.366Z,8.75
2018-06-20T10:55:49.091Z,7.55
2018-06-20T10:58:22.624Z,7.05
2018-06-20T11:00:56.224Z,6.85
2018-06-20T11:03:29.827Z,7.42
2018-06-20T11:06:03.491Z,8.50
2018-06-20T11:10:45.226Z,7.85
2018-06-20T11:13:15.079Z,7.12
2018-06-20T11:15:44.241Z,6.90
2018-06-20T11:18:12.495Z,7.78
2018-06-20T11:20:46.268Z,7.50
2018-06-20T11:23:14.823Z,7.35
2018-06-20T11:25:42.978Z,7.75
2018-06-20T11:28:13.413Z,8.63
2018-06-20T11:30:42.991Z,7.87
2018-06-20T11:33:11.433Z,9.35
2018-06-20T11:35:39.767Z,9.40
2018-06-20T11:38:08.095Z,9.48
2018-06-20T11:40:36.364Z,8.33
2018-06-20T11:43:05.156Z,7.83
2018-06-20T11:45:38.810Z,8.05
2018-06-20T11:48:07.199Z,9.60
2018-06-20T11:50:35.818Z,7.75
2018-06-20T11:53:10.745Z,8.70
2018-06-20T11:55:44.234Z,7.97
2018-06-20T11:58:17.841Z,8.18
2018-06-20T12:00:51.468Z,8.00
2018-06-20T12:03:26.191Z,8.78
2018-06-20T12:06:00.053Z,8.45
2018-06-20T12:08:33.984Z,8.70
2018-06-20T12:11:07.598Z,8.58
2018-06-20T12:13:41.491Z,8.15
2018-06-20T12:16:30.174Z,8.48
2018-06-20T12:19:03.916Z,8.93
2018-06-20T12:21:37.688Z,8.08
2018-06-20T12:24:11.998Z,8.55
2018-06-20T12:26:45.689Z,9.58
2018-06-20T12:29:19.515Z,8.43
2018-06-20T12:31:53.294Z,15.38
2018-06-20T12:34:26.898Z,8.30
2018-06-20T12:37:00.754Z,8.63
2018-06-20T12:39:28.375Z,8.48
2018-06-20T12:42:02.239Z,8.65
2018-06-20T12:44:36.248Z,7.97
2018-06-20T12:47:08.675Z,8.90
2018-06-20T12:49:40.510Z,8.33
2018-06-20T12:52:09.405Z,9.18
2018-06-20T12:54:38.302Z,10.88
2018-06-20T12:57:06.681Z,7.97
2018-06-20T12:59:34.948Z,8.55
2018-06-20T13:02:03.400Z,8.25
2018-06-20T13:04:31.819Z,9.23
2018-06-20T13:07:00.295Z,8.25
2018-06-20T13:09:28.542Z,8.58
2018-06-20T13:11:57.165Z,8.15
2018-06-20T13:14:25.818Z,9.08
2018-06-20T13:16:54.327Z,7.65
2018-06-20T13:19:22.701Z,11.22
2018-06-20T13:21:51.505Z,8.70
2018-06-20T13:24:19.735Z,9.35
2018-06-20T13:26:48.050Z,8.05
2018-06-20T13:29:16.253Z,7.62
2018-06-20T13:31:50.050Z,7.60
2018-06-20T13:36:29.294Z,7.78
2018-06-20T13:39:02.967Z,9.50
2018-06-20T13:41:36.741Z,6.95
2018-06-20T13:44:06.945Z,7.67
2018-06-20T13:46:40.624Z,7.37
2018-06-20T13:49:08.915Z,7.60
2018-06-20T13:51:37.464Z,7.08
2018-06-20T13:54:06.327Z,8.55
2018-06-20T13:56:34.846Z,8.08
2018-06-20T13:59:03.225Z,7.70
2018-06-20T14:01:31.552Z,11.70
2018-06-20T14:03:59.934Z,6.33
2018-06-20T14:06:28.676Z,14.05
2018-06-20T14:08:58.265Z,6.60
2018-06-20T14:11:26.453Z,6.17
2018-06-20T14:13:54.804Z,7.42
2018-06-20T14:16:23.176Z,13.88
2018-06-20T14:18:51.643Z,8.58
2018-06-20T14:21:25.244Z,9.30
2018-06-20T14:23:53.459Z,7.67
2018-06-20T14:26:22.627Z,6.35
2018-06-20T14:28:50.940Z,6.90
2018-06-20T14:31:24.825Z,8.98
2018-06-20T14:33:58.481Z,7.10
2018-06-20T14:36:32.188Z,8.40
2018-06-20T14:39:06.140Z,7.78
2018-06-20T14:41:39.970Z,6.65
2018-06-20T14:44:10.158Z,7.62
2018-06-20T14:46:38.741Z,7.85
2018-06-20T14:49:07.036Z,6.58
2018-06-20T14:51:35.322Z,6.37
2018-06-20T14:54:03.762Z,6.97
2018-06-20T14:56:32.185Z,5.42
2018-06-20T14:59:00.558Z,7.47
2018-06-20T15:01:28.898Z,6.70
2018-06-20T15:03:57.313Z,7.65
2018-06-20T15:06:25.703Z,5.25
2018-06-20T15:08:54.514Z,10.20
2018-06-20T15:11:23.021Z,6.65
2018-06-20T15:13:51.413Z,5.33
2018-06-20T15:16:25.180Z,8.38
2018-06-20T15:18:53.689Z,6.97
2018-06-20T15:21:22.144Z,7.67
2018-06-20T15:23:50.823Z,7.67
2018-06-20T15:26:24.608Z,7.20
2018-06-20T15:28:58.198Z,7.35
2018-06-20T15:31:32.638Z,7.65
2018-06-20T15:34:07.124Z,6.33
2018-06-20T15:36:40.914Z,5.17
2018-06-20T15:39:09.691Z,5.70
2018-06-20T15:41:38.123Z,11.30
2018-06-20T15:44:06.734Z,10.00
2018-06-20T15:46:35.270Z,10.15
2018-06-20T15:49:03.860Z,6.05
2018-06-20T15:51:32.366Z,7.25
2018-06-20T15:54:01.188Z,7.50
2018-06-20T15:56:29.476Z,7.12
2018-06-20T15:58:58.813Z,6.53
2018-06-20T16:01:27.473Z,5.97
2018-06-20T16:03:55.785Z,6.87
2018-06-20T16:06:24.361Z,6.65
2018-06-20T16:10:00.154Z,7.08
2018-06-20T16:12:28.777Z,6.62
2018-06-20T16:14:57.812Z,8.53
2018-06-20T16:17:26.583Z,8.65
2018-06-20T16:22:07.243Z,9.10
2018-06-20T16:24:40.938Z,9.78
2018-06-20T16:27:14.823Z,6.75
2018-06-20T16:29:48.552Z,7.70
2018-06-20T16:32:16.930Z,13.77
2018-06-20T16:34:45.360Z,11.73
2018-06-20T16:37:13.927Z,10.30
2018-06-20T16:39:42.931Z,6.17
2018-06-20T16:42:11.334Z,6.95
2018-06-20T16:44:39.670Z,7.15
2018-06-20T16:47:07.909Z,7.67
2018-06-20T16:49:36.220Z,7.20
2018-06-20T16:52:04.899Z,7.45
2018-06-20T16:54:33.199Z,7.12
2018-06-20T16:57:01.805Z,11.57
2018-06-20T16:59:30.097Z,8.40
2018-06-20T17:02:03.852Z,6.10
2018-06-20T17:04:32.084Z,17.27
2018-06-20T17:07:00.311Z,7.50
2018-06-20T17:09:28.578Z,7.90
2018-06-20T17:12:02.358Z,6.92
2018-06-20T17:14:36.452Z,7.77
2018-06-20T17:18:12.599Z,7.30
2018-06-20T17:20:46.244Z,7.87
2018-06-20T17:23:20.139Z,7.87
2018-06-20T17:25:48.496Z,6.73
2018-06-20T17:28:17.120Z,7.57
2018-06-20T17:30:46.003Z,8.93
2018-06-20T17:33:13.986Z,7.90
2018-06-20T17:35:43.917Z,7.50
2018-06-20T17:38:12.724Z,9.20
2018-06-20T17:40:40.991Z,8.80
2018-06-20T17:43:09.537Z,6.20
2018-06-20T17:45:37.658Z,10.27
2018-06-20T17:48:06.947Z,10.23
2018-06-20T17:50:35.289Z,10.03
2018-06-20T17:53:04.244Z,8.53
2018-06-20T17:55:32.802Z,7.40
2018-06-20T17:58:01.192Z,9.93
2018-06-20T18:00:30.801Z,12.77
2018-06-20T18:02:59.334Z,8.43
2018-06-20T18:05:32.905Z,11.43
2018-06-20T18:08:06.665Z,14.97
2018-06-20T18:10:40.851Z,7.87
2018-06-20T18:13:10.190Z,7.90
2018-06-20T18:15:44.191Z,8.60
2018-06-20T18:18:12.473Z,10.80
2018-06-20T18:20:41.121Z,9.53
2018-06-20T18:23:09.450Z,13.47
2018-06-20T18:25:38.206Z,11.33
2018-06-20T18:28:06.548Z,8.30
2018-06-20T18:30:35.302Z,7.60
2018-06-20T18:33:04.041Z,9.07
2018-06-20T18:35:33.776Z,8.47
2018-06-20T18:38:02.183Z,7.73
2018-06-20T18:40:30.689Z,9.40
2018-06-20T18:42:59.116Z,7.00
2018-06-20T18:45:27.764Z,7.50
2018-06-20T18:48:01.747Z,6.83
2018-06-20T18:50:30.589Z,5.80
2018-06-20T18:52:58.903Z,10.67
2018-06-20T18:55:27.582Z,11.40
2018-06-20T18:58:01.367Z,12.83
2018-06-20T19:00:34.997Z,8.37
2018-06-20T19:03:08.837Z,7.20
2018-06-20T19:05:43.025Z,10.73
2018-06-20T19:08:16.793Z,9.03
2018-06-20T19:10:45.292Z,8.70
2018-06-20T19:13:13.782Z,8.97
2018-06-20T19:15:42.408Z,8.10
2018-06-20T19:18:10.899Z,6.70
2018-06-20T19:20:40.889Z,7.67
2018-06-20T19:23:09.454Z,10.17
2018-06-20T19:25:37.899Z,10.33
2018-06-20T19:28:06.611Z,13.27
2018-06-20T19:30:34.949Z,10.93
2018-06-20T19:33:03.272Z,10.80
2018-06-20T19:35:31.998Z,11.80
2018-06-20T19:38:01.529Z,9.50
2018-06-20T19:40:31.267Z,11.00
2018-06-20T19:42:59.569Z,8.60
2018-06-20T19:45:27.927Z,7.80
2018-06-20T19:47:56.491Z,10.00
2018-06-20T19:50:24.969Z,8.53
2018-06-20T19:52:53.335Z,10.50
2018-06-20T19:55:21.683Z,8.47
2018-06-20T19:57:50.164Z,14.00
2018-06-20T20:00:18.525Z,12.37
2018-06-20T20:02:48.014Z,13.80
2018-06-20T20:05:16.451Z,9.77
2018-06-20T20:07:45.615Z,8.67
2018-06-20T20:10:14.645Z,8.93
2018-06-20T20:12:43.393Z,9.37
2018-06-20T20:15:11.910Z,10.50
2018-06-20T20:17:40.892Z,14.00
2018-06-20T20:20:09.971Z,8.57
2018-06-20T20:22:39.250Z,11.17
2018-06-20T20:25:07.862Z,7.17
2018-06-20T20:27:36.672Z,5.80
2018-06-20T20:30:05.359Z,9.37
2018-06-20T20:32:34.280Z,11.57
2018-06-20T20:35:03.578Z,9.77
2018-06-20T20:37:33.098Z,9.10
2018-06-20T20:40:01.855Z,11.10
2018-06-20T20:42:31.121Z,8.00
2018-06-20T20:44:59.909Z,10.07
2018-06-20T20:47:28.615Z,10.73
2018-06-20T20:49:57.632Z,8.63
2018-06-20T20:52:25.973Z,9.10
2018-06-20T20:54:54.500Z,7.77
2018-06-20T20:57:22.887Z,10.20
2018-06-20T20:59:51.436Z,8.37
2018-06-20T21:02:20.007Z,8.50
2018-06-20T21:04:48.371Z,9.27
2018-06-20T21:07:16.888Z,10.33
2018-06-20T21:09:45.385Z,8.70
2018-06-20T21:12:13.656Z,7.87
2018-06-20T21:14:41.873Z,11.23
2018-06-20T21:17:10.125Z,9.40
2018-06-20T21:19:38.594Z,8.37
2018-06-20T21:22:07.091Z,7.90
2018-06-20T21:24:35.316Z,15.17
2018-06-20T21:27:03.742Z,10.20
2018-06-20T21:29:32.067Z,8.03
2018-06-20T21:32:00.349Z,10.40
2018-06-20T21:34:29.328Z,10.27
2018-06-20T21:36:57.650Z,11.03
2018-06-20T21:39:25.872Z,12.87
2018-06-20T21:41:54.207Z,11.30
2018-06-20T21:44:22.535Z,13.13
2018-06-20T21:46:50.835Z,10.30
2018-06-20T21:49:19.212Z,8.93
2018-06-20T21:51:47.913Z,10.23
2018-06-20T21:54:17.061Z,10.43
2018-06-20T21:56:45.590Z,14.53
2018-06-20T21:59:13.923Z,10.47
2018-06-20T22:01:42.414Z,12.00
2018-06-20T22:04:10.725Z,12.53
2018-06-20T22:06:39.039Z,22.50
2018-06-20T22:09:08.627Z,15.17
2018-06-20T22:11:38.150Z,18.57
2018-06-20T22:14:08.067Z,13.53
2018-06-20T22:16:37.003Z,11.50
2018-06-20T22:19:05.304Z,16.27
2018-06-20T22:21:33.940Z,13.43
2018-06-20T22:24:02.230Z,13.70
2018-06-20T22:26:30.509Z,11.30
2018-06-20T22:28:58.772Z,13.70
2018-06-20T22:31:27.037Z,13.17
2018-06-20T22:33:55.567Z,9.50
2018-06-20T22:36:23.984Z,8.03
2018-06-20T22:38:52.838Z,8.23
2018-06-20T22:41:21.144Z,7.87
2018-06-20T22:43:49.401Z,8.00
2018-06-20T22:46:17.874Z,12.53
2018-06-20T22:48:46.119Z,13.33
2018-06-20T22:51:15.067Z,13.03
2018-06-20T22:53:43.312Z,8.17
2018-06-20T22:56:11.903Z,9.53
2018-06-20T22:58:40.275Z,12.20
2018-06-20T23:01:08.623Z,10.97
2018-06-20T23:03:36.827Z,8.20
2018-06-20T23:06:05.553Z,8.17
2018-06-20T23:08:34.203Z,8.20
2018-06-20T23:11:02.424Z,12.00
2018-06-20T23:13:30.726Z,12.13
2018-06-20T23:15:59.272Z,16.97
2018-06-20T23:18:28.287Z,10.73
2018-06-20T23:20:56.827Z,13.23
2018-06-20T23:23:25.471Z,9.80
2018-06-20T23:25:53.695Z,11.07
2018-06-20T23:28:21.982Z,12.97
2018-06-20T23:30:50.345Z,10.20
2018-06-20T23:33:18.681Z,8.43
2018-06-20T23:35:47.585Z,8.33
2018-06-20T23:38:16.600Z,10.07
2018-06-20T23:40:45.163Z,8.77
2018-06-20T23:43:13.432Z,9.57
2018-06-20T23:45:41.709Z,9.13
2018-06-20T23:48:09.940Z,8.90
2018-06-20T23:50:38.185Z,9.43
2018-06-20T23:53:06.435Z,9.50
2018-06-20T23:55:34.705Z,11.30
2018-06-20T23:58:02.945Z,14.80
